Time;durP1;ratioP1;P1;durP2;ratioP2;P2;SDS_P1;SDS_P2;PMS_P1;PMS_P2;Temp;Humidity;BMP_temperature;BMP_pressure;BME280_temperature;BME280_humidity;BME280_pressure;Samples;Min_cycle;Max_cycle;Signal;HPM_P1;HPM_P2
2022/09/26 00:00:47;;;;;;;11.68;7.82;;;;;;;9.87;90.67;98496.31;5055719;28;20516;-58
2022/09/26 00:03:13;;;;;;;12.68;7.68;;;;;;;9.86;89.99;98497.22;5053689;28;20837;-58
2022/09/26 00:05:39;;;;;;;13.93;8.18;;;;;;;9.87;90.14;98504.09;5049236;28;20072;-59
2022/09/26 00:08:06;;;;;;;12.02;8.32;;;;;;;9.86;90.63;98499.81;5066665;28;20086;-60
2022/09/26 00:10:33;;;;;;;13.45;8.05;;;;;;;9.85;90.90;98504.16;5047555;28;20527;-55
2022/09/26 00:12:59;;;;;;;11.73;7.90;;;;;;;9.85;90.74;98498.13;5051676;28;20192;-57
2022/09/26 00:15:25;;;;;;;13.63;7.93;;;;;;;9.85;90.45;98493.78;5052540;28;20083;-57
2022/09/26 00:17:51;;;;;;;14.35;8.27;;;;;;;9.84;90.65;98496.47;5051471;28;20068;-58
2022/09/26 00:20:17;;;;;;;12.73;8.32;;;;;;;9.83;91.23;98497.38;5053882;28;20040;-58
2022/09/26 00:22:43;;;;;;;13.30;8.35;;;;;;;9.83;90.74;98502.56;5071511;28;20044;-57
2022/09/26 00:25:09;;;;;;;16.23;9.35;;;;;;;9.78;91.22;98487.22;5051321;28;20047;-57
2022/09/26 00:27:35;;;;;;;12.98;7.97;;;;;;;9.84;91.45;98509.44;5051487;28;20543;-58
2022/09/26 00:30:00;;;;;;;13.73;7.50;;;;;;;9.83;91.05;98502.56;5036132;28;20692;-58
2022/09/26 00:32:27;;;;;;;12.55;8.18;;;;;;;9.79;91.48;98500.09;5050821;28;20051;-57
2022/09/26 00:34:52;;;;;;;12.32;7.70;;;;;;;9.82;90.65;98512.09;5051502;28;20033;-56
2022/09/26 00:37:18;;;;;;;13.10;7.43;;;;;;;9.81;90.72;98513.03;5051840;28;20043;-58
2022/09/26 00:39:45;;;;;;;10.85;7.57;;;;;;;9.77;90.71;98501.97;5070117;28;20036;-57
2022/09/26 00:42:15;;;;;;;9.35;6.03;;;;;;;9.81;91.01;98515.63;5070366;28;20055;-56
2022/09/26 00:44:44;;;;;;;;;;;;;;;9.82;90.65;98516.47;5068448;28;20075;-59
2022/09/26 00:47:20;;;;;;;;;;;;;;;9.78;90.78;98519.22;5068471;28;19962;-56
2022/09/26 00:49:48;;;;;;;8.15;4.93;;;;;;;9.75;90.62;98523.69;5048907;28;19944;-57
2022/09/26 00:52:21;;;;;;;11.52;5.82;;;;;;;9.73;90.03;98526.34;5070135;28;20045;-58
2022/09/26 00:54:49;;;;;;;8.60;5.68;;;;;;;9.74;90.34;98522.84;5050478;28;20044;-57
2022/09/26 00:57:20;;;;;;;8.38;5.38;;;;;;;9.66;90.13;98506.00;5052748;28;20436;-57
2022/09/26 00:59:53;;;;;;;9.80;5.32;;;;;;;9.75;90.09;98516.75;5057225;28;20055;-54
2022/09/26 01:02:19;;;;;;;7.15;5.07;;;;;;;9.76;90.35;98521.03;5071942;28;20475;-56
2022/09/26 01:04:46;;;;;;;7.53;5.03;;;;;;;9.76;90.12;98526.22;5054198;28;20529;-57
2022/09/26 01:07:18;;;;;;;6.28;4.45;;;;;;;9.77;90.30;98524.47;5062109;28;20075;-56
2022/09/26 01:09:44;;;;;;;8.60;5.10;;;;;;;9.77;90.03;98519.28;5051569;28;20033;-57
2022/09/26 01:12:10;;;;;;;6.47;4.57;;;;;;;9.79;89.85;98525.22;5067720;28;20093;-58
2022/09/26 01:14:38;;;;;;;9.10;4.65;;;;;;;9.79;89.92;98517.44;5068709;28;20047;-58
2022/09/26 01:17:04;;;;;;;7.25;5.22;;;;;;;9.82;89.54;98521.66;5050284;28;20040;-58
2022/09/26 01:19:33;;;;;;;7.50;5.15;;;;;;;9.82;89.59;98517.31;5051785;28;20523;-59
2022/09/26 01:22:22;;;;;;;8.55;6.05;;;;;;;9.82;89.99;98517.31;5033345;28;20049;-59
2022/09/26 01:25:05;;;;;;;8.88;5.13;;;;;;;9.83;89.66;98515.53;5051485;28;20036;-59
2022/09/26 01:27:47;;;;;;;8.80;5.30;;;;;;;9.84;89.47;98520.63;5049488;28;20041;-59
2022/09/26 01:30:16;;;;;;;8.43;6.10;;;;;;;9.85;89.83;98522.31;5058056;28;20059;-59
2022/09/26 01:33:06;;;;;;;9.15;5.32;;;;;;;9.88;90.01;98524.78;5054166;28;20044;-59
2022/09/26 01:36:02;;;;;;;7.10;4.95;;;;;;;9.89;89.35;98520.44;5070638;28;20048;-59
2022/09/26 01:38:40;;;;;;;7.28;4.75;;;;;;;9.88;89.88;98521.34;5070059;28;20044;-59
2022/09/26 01:41:35;;;;;;;8.75;4.95;;;;;;;9.88;89.09;98522.19;5058898;28;20044;-60
2022/09/26 01:44:17;;;;;;;10.90;4.95;;;;;;;9.90;89.75;98525.53;5036977;28;20592;-59
2022/09/26 01:46:50;;;;;;;8.32;5.53;;;;;;;9.90;89.86;98522.94;5049456;28;20063;-58
2022/09/26 01:49:22;;;;;;;8.77;5.40;;;;;;;9.92;89.17;98528.91;5058041;28;20045;-60
2022/09/26 01:52:01;;;;;;;7.75;5.53;;;;;;;9.94;89.09;98534.88;5069892;28;20036;-60
2022/09/26 01:54:34;;;;;;;9.33;5.40;;;;;;;9.74;89.05;98504.69;5064789;28;20068;-59
2022/09/26 01:57:02;;;;;;;8.38;5.53;;;;;;;9.91;88.91;98540.19;5040474;28;20292;-59
2022/09/26 01:59:31;;;;;;;;;;;;;;;9.89;88.74;98536.81;5059362;28;20036;-59
2022/09/26 02:02:07;;;;;;;7.93;5.32;;;;;;;9.86;88.08;98539.59;5052885;28;20024;-59
2022/09/26 02:04:36;;;;;;;8.07;5.47;;;;;;;9.62;88.02;98501.88;5053014;28;20128;-58
2022/09/26 02:07:39;;;;;;;7.25;4.85;;;;;;;9.85;88.45;98537.91;5068318;28;20086;-59
2022/09/26 02:10:10;;;;;;;7.78;5.43;;;;;;;9.84;88.29;98535.41;5069444;28;20157;-59
2022/09/26 02:12:39;;;;;;;6.85;5.22;;;;;;;9.67;88.12;98511.13;5055794;28;20048;-59
2022/09/26 02:15:08;;;;;;;8.43;5.40;;;;;;;9.54;87.86;98484.09;5029338;28;20040;-58
2022/09/26 02:17:48;;;;;;;6.43;5.18;;;;;;;9.86;87.59;98546.53;5049359;28;20045;-57
2022/09/26 02:20:28;;;;;;;12.18;7.30;;;;;;;9.84;88.20;98559.56;5050332;28;20083;-58
2022/09/26 02:22:55;;;;;;;7.03;5.05;;;;;;;9.79;88.29;98548.59;5067156;28;20370;-58
2022/09/26 02:25:23;;;;;;;8.45;5.72;;;;;;;9.83;88.00;98549.28;5069220;28;20094;-59
2022/09/26 02:27:49;;;;;;;8.82;5.40;;;;;;;9.79;88.13;98554.63;5049043;28;20036;-59
2022/09/26 02:30:16;;;;;;;8.07;5.35;;;;;;;9.77;88.57;98553.03;5033084;28;20044;-60
2022/09/26 02:32:42;;;;;;;7.60;5.55;;;;;;;9.77;88.19;98558.22;5062453;28;20131;-58
2022/09/26 02:37:54;;;;;;;9.15;6.32;;;;;;;9.79;87.49;98557.22;5069085;28;20040;-59
2022/09/26 02:40:46;;;;;;;9.10;5.68;;;;;;;9.79;87.74;98559.81;5065633;28;20053;-59
2022/09/26 02:43:30;;;;;;;8.38;5.40;;;;;;;9.81;87.59;98559.75;5048980;28;20045;-58
2022/09/26 02:46:05;;;;;;;7.50;5.32;;;;;;;9.83;87.66;98562.25;5032429;28;20040;-59
2022/09/26 02:49:05;;;;;;;8.27;5.40;;;;;;;9.86;87.80;98569.88;5026807;28;20496;-58
2022/09/26 02:51:53;;;;;;;9.63;5.50;;;;;;;9.85;87.41;98563.84;5036706;28;20538;-59
2022/09/26 02:54:48;;;;;;;7.75;5.35;;;;;;;9.83;87.14;98564.88;5015935;28;20113;-59
2022/09/26 02:57:32;;;;;;;7.28;5.00;;;;;;;9.82;87.04;98565.78;5028603;28;20104;-59
2022/09/26 03:00:06;;;;;;;8.32;5.13;;;;;;;9.82;87.37;98558.81;5029869;28;20045;-58
2022/09/26 03:02:36;;;;;;;9.75;5.65;;;;;;;9.82;87.13;98561.44;5012732;28;20050;-59
2022/09/26 03:05:20;;;;;;;9.40;5.90;;;;;;;9.82;86.57;98557.97;5039198;28;20041;-59
2022/09/26 03:08:08;;;;;;;8.52;4.90;;;;;;;9.81;86.96;98561.50;5032047;28;20094;-59
2022/09/26 03:10:36;;;;;;;6.43;4.77;;;;;;;9.77;87.07;98561.66;5031547;28;20068;-59
2022/09/26 03:13:08;;;;;;;6.63;5.00;;;;;;;9.75;87.15;98558.28;5028607;28;20037;-58
2022/09/26 03:15:34;;;;;;;8.77;4.43;;;;;;;9.77;86.68;98558.22;5038884;28;20429;-58
2022/09/26 03:18:02;;;;;;;9.13;5.82;;;;;;;9.58;87.13;98540.09;5043059;28;20509;-59
2022/09/26 03:20:29;;;;;;;5.63;3.92;;;;;;;9.74;86.98;98563.53;5012157;28;20848;-59
2022/09/26 03:22:55;;;;;;;6.85;4.45;;;;;;;9.74;86.09;98561.78;5028147;28;20045;-59
2022/09/26 03:25:24;;;;;;;5.90;4.40;;;;;;;9.75;86.41;98558.28;5036224;28;20041;-59
2022/09/26 03:28:01;;;;;;;7.63;4.60;;;;;;;9.63;86.21;98545.91;5029646;28;20132;-59
2022/09/26 03:30:28;;;;;;;6.93;4.40;;;;;;;9.80;86.25;98565.84;5012249;28;20517;-59
2022/09/26 03:33:20;;;;;;;7.28;4.70;;;;;;;9.82;85.78;98570.97;5044760;28;20048;-59
2022/09/26 03:35:47;;;;;;;6.03;4.13;;;;;;;9.68;86.09;98553.47;5031876;28;20041;-57
2022/09/26 03:38:13;;;;;;;6.30;4.32;;;;;;;9.84;86.67;98575.16;5047183;28;20041;-59
2022/09/26 03:40:44;;;;;;;7.47;4.32;;;;;;;9.85;86.15;98576.84;5038203;28;20476;-58
2022/09/26 03:43:33;;;;;;;6.10;4.10;;;;;;;9.87;86.29;98585.41;5018580;28;20106;-57
2022/09/26 03:46:03;;;;;;;7.22;4.60;;;;;;;9.88;86.01;98583.66;5016857;28;20049;-59
2022/09/26 03:48:30;;;;;;;8.25;4.63;;;;;;;9.89;85.72;98582.75;5033045;28;20061;-59
2022/09/26 03:51:08;;;;;;;8.45;4.40;;;;;;;9.75;85.80;98560.03;5047879;28;20040;-58
2022/09/26 03:53:37;;;;;;;6.85;4.45;;;;;;;9.92;86.12;98582.56;5069017;28;20051;-58
2022/09/26 03:56:08;;;;;;;6.72;4.50;;;;;;;9.92;86.30;98586.00;5050604;28;20398;-59
2022/09/26 03:58:33;;;;;;;6.13;4.35;;;;;;;9.93;85.18;98590.28;5047648;28;20068;-58
2022/09/26 04:01:03;;;;;;;8.00;4.68;;;;;;;9.81;85.78;98562.34;5047404;28;20463;-59
2022/09/26 04:03:33;;;;;;;7.85;5.05;;;;;;;9.95;85.76;98583.25;5031087;28;20060;-59
2022/09/26 04:05:58;;;;;;;6.53;4.45;;;;;;;9.88;85.39;98579.31;5047844;28;20076;-60
2022/09/26 04:08:24;;;;;;;7.95;4.55;;;;;;;9.64;84.73;98549.34;5047737;28;20450;-59
2022/09/26 04:10:50;;;;;;;7.05;4.82;;;;;;;9.95;84.71;98595.38;5048036;28;20581;-58
2022/09/26 04:13:17;;;;;;;7.63;4.95;;;;;;;9.97;84.16;98596.16;5055199;28;20072;-59
2022/09/26 04:15:43;;;;;;;8.88;4.90;;;;;;;9.70;84.37;98549.88;5059553;28;20051;-60
2022/09/26 04:18:11;;;;;;;6.80;4.60;;;;;;;9.95;84.66;98593.63;5067727;28;20119;-58
2022/09/26 04:20:38;;;;;;;7.18;4.53;;;;;;;9.98;84.37;98593.50;5067622;28;20105;-58
2022/09/26 04:23:04;;;;;;;10.80;4.65;;;;;;;9.97;84.09;98596.16;5049708;28;20036;-59
2022/09/26 04:25:31;;;;;;;7.72;4.97;;;;;;;9.95;83.92;98603.19;5065797;28;20555;-59
2022/09/26 04:27:57;;;;;;;7.47;4.90;;;;;;;9.97;84.45;98599.59;5050033;28;20461;-59
2022/09/26 04:30:22;;;;;;;6.13;4.43;;;;;;;10.00;84.03;98607.22;5050859;28;20043;-58
2022/09/26 04:32:54;;;;;;;8.88;5.05;;;;;;;10.02;84.05;98599.38;5052576;28;20056;-58
2022/09/26 04:35:35;;;;;;;8.00;5.25;;;;;;;10.05;83.91;98602.66;5067676;28;20040;-58
2022/09/26 04:38:03;;;;;;;8.93;5.80;;;;;;;10.01;83.61;98587.31;5050706;28;20040;-58
2022/09/26 04:40:30;;;;;;;8.02;4.93;;;;;;;10.10;83.80;98598.06;5047562;28;20044;-59
2022/09/26 04:43:07;;;;;;;13.40;5.97;;;;;;;10.12;83.10;98601.44;5055774;28;20048;-61
2022/09/26 04:45:33;;;;;;;7.45;4.82;;;;;;;9.81;82.96;98546.75;5030832;28;20048;-58
2022/09/26 04:47:59;;;;;;;6.25;4.53;;;;;;;10.17;82.50;98596.91;5031734;28;20037;-60
2022/09/26 04:50:25;;;;;;;6.88;4.18;;;;;;;10.10;82.51;98592.06;5068836;28;20039;-59
2022/09/26 04:53:05;;;;;;;7.80;4.20;;;;;;;10.17;82.56;98612.47;5079450;28;20097;-59
2022/09/26 04:55:34;;;;;;;8.40;5.88;;;;;;;10.22;82.23;98617.44;5068097;28;20044;-60
2022/09/26 04:58:01;;;;;;;9.15;4.95;;;;;;;10.18;82.19;98613.31;5060804;28;20040;-60
2022/09/26 05:00:27;;;;;;;9.52;5.82;;;;;;;10.17;82.11;98609.88;5053394;28;20049;-58
2022/09/26 05:02:55;;;;;;;8.30;5.32;;;;;;;9.96;81.84;98571.97;5054157;28;20047;-60
2022/09/26 05:05:21;;;;;;;10.52;5.45;;;;;;;10.02;81.21;98600.22;5053905;28;20508;-60
2022/09/26 05:07:47;;;;;;;8.88;4.80;;;;;;;10.15;81.98;98613.44;5074380;28;20044;-59
2022/09/26 05:10:13;;;;;;;9.20;5.40;;;;;;;10.04;81.73;98585.41;5054588;28;20032;-59
2022/09/26 05:12:48;;;;;;;8.05;4.80;;;;;;;10.18;80.93;98613.31;5053926;28;20039;-59
2022/09/26 05:15:14;;;;;;;12.70;5.63;;;;;;;10.13;80.92;98613.53;5060983;28;20150;-59
2022/09/26 05:17:42;;;;;;;7.15;5.18;;;;;;;10.20;81.14;98619.28;5056845;28;20040;-59
2022/09/26 05:20:08;;;;;;;9.07;5.00;;;;;;;10.12;80.62;98603.19;5071801;28;20070;-61
2022/09/26 05:22:47;;;;;;;7.10;4.95;;;;;;;10.22;79.93;98607.03;5089994;28;20290;-61
2022/09/26 05:28:00;;;;;;;8.07;5.15;;;;;;;10.37;79.55;98628.81;5053740;28;20401;-59
2022/09/26 05:30:29;;;;;;;7.53;5.38;;;;;;;10.44;79.69;98627.59;5036481;28;20040;-61
2022/09/26 05:32:56;;;;;;;8.93;5.43;;;;;;;10.34;79.27;98592.59;5071637;28;20521;-60
2022/09/26 05:35:22;;;;;;;6.82;5.03;;;;;;;10.56;78.81;98621.78;5053258;28;20036;-62
2022/09/26 05:37:48;;;;;;;9.88;4.90;;;;;;;10.48;78.31;98623.91;5054693;28;20527;-58
2022/09/26 05:43:00;;;;;;;7.22;4.50;;;;;;;10.53;77.96;98627.97;5048275;28;20048;-59
2022/09/26 05:45:30;;;;;;;9.07;4.95;;;;;;;10.49;77.73;98630.81;5057905;28;20044;-59
2022/09/26 05:47:56;;;;;;;8.15;5.38;;;;;;;10.52;77.05;98628.88;5037033;28;20531;-60
2022/09/26 05:50:23;;;;;;;7.72;4.47;;;;;;;10.39;77.11;98625.22;5053401;28;20036;-59
2022/09/26 05:52:49;;;;;;;8.07;4.80;;;;;;;10.38;77.54;98625.31;5064683;28;20546;-59
2022/09/26 05:55:21;;;;;;;6.90;4.82;;;;;;;10.53;77.53;98633.16;5072764;28;20408;-60
2022/09/26 05:57:59;;;;;;;7.28;4.88;;;;;;;10.52;76.99;98617.66;5086079;28;20045;-59
2022/09/26 06:00:48;;;;;;;5.97;4.35;;;;;;;10.67;77.12;98635.06;5053101;28;20044;-59
2022/09/26 06:03:14;;;;;;;9.02;4.20;;;;;;;10.74;76.39;98638.16;5036280;28;20048;-59
2022/09/26 06:05:53;;;;;;;7.47;4.72;;;;;;;10.65;76.49;98612.66;5053262;28;20040;-60
2022/09/26 06:08:25;;;;;;;8.75;4.25;;;;;;;10.83;75.82;98642.91;5046338;28;20062;-60
2022/09/26 06:11:18;;;;;;;6.60;4.15;;;;;;;10.73;75.02;98650.31;5047277;28;20036;-60
2022/09/26 06:13:47;;;;;;;6.35;4.45;;;;;;;10.72;75.32;98650.44;5062615;28;20040;-60
2022/09/26 06:16:19;;;;;;;9.85;4.70;;;;;;;10.78;74.92;98652.72;5070607;28;20047;-60
2022/09/26 06:18:47;;;;;;;9.45;4.22;;;;;;;10.58;75.09;98620.78;5052688;28;20428;-60
2022/09/26 06:21:15;;;;;;;6.65;4.18;;;;;;;10.83;74.64;98648.13;5055257;28;20123;-59
2022/09/26 06:23:42;;;;;;;6.35;3.95;;;;;;;10.88;74.80;98649.56;5052761;28;20044;-60
2022/09/26 06:26:21;;;;;;;9.82;4.40;;;;;;;10.99;74.46;98655.00;5048951;28;20052;-59
2022/09/26 06:28:50;;;;;;;9.27;4.05;;;;;;;11.04;74.43;98660.81;5069000;28;20043;-60
2022/09/26 06:31:17;;;;;;;6.78;3.65;;;;;;;11.09;75.04;98665.81;5059329;28;20067;-57
2022/09/26 06:34:11;;;;;;;6.40;4.10;;;;;;;11.07;74.50;98666.78;5070377;28;20051;-57
2022/09/26 06:37:00;;;;;;;7.28;3.58;;;;;;;11.07;74.33;98666.78;5055655;28;20459;-60
2022/09/26 06:39:34;;;;;;;5.60;3.40;;;;;;;11.11;74.50;98665.69;5057179;28;20047;-61
2022/09/26 06:42:07;;;;;;;7.28;3.22;;;;;;;11.18;74.13;98662.72;5068979;28;20040;-59
2022/09/26 06:44:52;;;;;;;5.15;3.47;;;;;;;11.15;73.59;98662.84;5075184;28;20127;-60
2022/09/26 06:47:30;;;;;;;9.38;4.53;;;;;;;10.57;73.56;98618.28;5044247;28;20470;-61
2022/09/26 06:50:15;;;;;;;9.45;3.90;;;;;;;10.87;74.10;98667.84;5074490;28;20475;-61
2022/09/26 06:52:45;;;;;;;6.47;3.53;;;;;;;10.74;73.41;98633.81;5052543;28;20051;-59
2022/09/26 06:55:13;;;;;;;5.53;4.40;;;;;;;11.01;73.37;98667.94;5049990;28;20182;-59
2022/09/26 06:57:41;;;;;;;6.25;4.28;;;;;;;11.19;73.23;98669.59;5077000;28;20051;-58
2022/09/26 07:00:13;;;;;;;5.82;3.97;;;;;;;11.12;72.75;98667.38;5068971;28;20407;-61
2022/09/26 07:02:58;;;;;;;5.93;3.85;;;;;;;11.21;72.92;98678.13;5060381;28;20040;-61
2022/09/26 07:05:45;;;;;;;7.45;4.05;;;;;;;11.37;72.31;98684.22;5042753;28;20040;-61
2022/09/26 07:08:12;;;;;;;4.78;3.78;;;;;;;11.23;71.96;98667.66;5062006;28;20041;-59
2022/09/26 07:10:38;;;;;;;5.85;3.80;;;;;;;11.40;72.28;98685.81;5054144;28;20376;-61
2022/09/26 07:13:09;;;;;;;4.70;3.65;;;;;;;11.44;71.23;98697.75;5057154;28;20071;-61
2022/09/26 07:15:36;;;;;;;6.30;3.58;;;;;;;11.41;71.15;98696.13;5049356;28;20071;-53
2022/09/26 07:18:14;;;;;;;6.65;4.07;;;;;;;11.51;71.21;98695.66;5053071;28;20232;-50
2022/09/26 07:21:04;;;;;;;5.70;3.67;;;;;;;11.60;70.61;98697.75;5058115;28;20055;-59
2022/09/26 07:23:45;;;;;;;5.82;3.80;;;;;;;11.45;70.75;98679.47;5073002;28;20052;-61
2022/09/26 07:26:12;;;;;;;6.13;4.07;;;;;;;11.53;70.39;98699.00;5064896;28;20115;-55
2022/09/26 07:28:37;;;;;;;5.15;3.60;;;;;;;11.57;70.57;98703.13;5054467;28;20040;-53
2022/09/26 07:31:04;;;;;;;6.90;3.70;;;;;;;11.54;70.39;98704.13;5063470;28;20484;-58
2022/09/26 07:34:02;;;;;;;5.50;3.63;;;;;;;11.51;70.34;98712.13;4979490;28;20054;-55
2022/09/26 07:36:31;;;;;;;10.20;5.60;;;;;;;11.64;70.41;98709.69;4963442;28;20052;-64
2022/09/26 07:38:58;;;;;;;9.70;5.93;;;;;;;11.75;69.97;98715.19;4955127;28;20537;-61
2022/09/26 07:41:29;;;;;;;7.90;4.05;;;;;;;11.89;69.60;98712.66;4969294;28;20046;-57
2022/09/26 07:43:57;;;;;;;5.95;4.30;;;;;;;11.92;69.48;98685.63;4966491;28;20051;-60
2022/09/26 07:52:12;;;;;;;6.53;4.20;;;;;;;12.11;67.90;98722.72;4978082;28;20049;-59
2022/09/26 07:54:56;;;;;;;4.25;3.45;;;;;;;12.25;67.78;98718.41;4986268;28;20532;-60
2022/09/26 07:57:48;;;;;;;3.90;3.00;;;;;;;12.38;67.89;98720.34;4977170;28;20630;-59
2022/09/26 08:00:35;;;;;;;4.70;3.35;;;;;;;12.23;67.34;98693.38;4948942;28;20054;-59
2022/09/26 08:03:17;;;;;;;4.28;3.38;;;;;;;12.39;66.90;98725.47;4970320;28;20145;-60
2022/09/26 08:05:43;;;;;;;5.93;3.53;;;;;;;12.55;67.29;98717.63;4955885;28;20072;-60
2022/09/26 08:08:09;;;;;;;4.70;3.28;;;;;;;12.66;67.12;98713.47;4966057;28;20042;-59
2022/09/26 08:10:55;;;;;;;5.43;3.30;;;;;;;12.69;66.80;98715.88;5079052;28;20463;-59
2022/09/26 08:13:36;;;;;;;4.25;3.25;;;;;;;12.83;66.43;98725.50;5063156;28;20521;-58
2022/09/26 08:16:21;;;;;;;5.35;3.05;;;;;;;12.87;66.27;98720.97;5060681;28;20244;-58
2022/09/26 08:18:49;;;;;;;6.70;3.47;;;;;;;12.98;66.06;98721.16;5062685;28;20040;-58
2022/09/26 08:21:15;;;;;;;4.95;3.55;;;;;;;12.99;65.83;98713.22;5054069;28;20043;-60
2022/09/26 08:23:41;;;;;;;4.75;3.38;;;;;;;13.03;65.98;98725.16;5053122;28;20056;-61
2022/09/26 08:26:25;;;;;;;11.10;6.85;;;;;;;12.97;65.64;98724.69;5070888;28;20044;-61
2022/09/26 08:28:58;;;;;;;4.72;3.60;;;;;;;12.92;65.98;98724.97;5049406;28;20041;-60
2022/09/26 08:31:25;;;;;;;5.05;3.20;;;;;;;12.89;66.11;98737.34;5053440;28;20064;-61
2022/09/26 08:33:52;;;;;;;3.38;3.00;;;;;;;12.80;66.08;98741.34;5069036;28;20048;-60
2022/09/26 08:36:20;;;;;;;3.35;2.78;;;;;;;12.43;66.07;98693.09;5070246;28;20035;-61
2022/09/26 08:39:06;;;;;;;4.78;3.10;;;;;;;12.34;66.11;98714.47;5079547;28;20119;-59
2022/09/26 08:42:33;;;;;;;5.97;3.47;;;;;;;12.40;66.63;98749.78;5059979;28;20218;-59
2022/09/26 08:48:59;;;;;;;5.00;2.90;;;;;;;12.04;67.64;98744.81;5072381;28;20059;-60
2022/09/26 08:51:31;;;;;;;8.40;5.18;;;;;;;12.03;68.28;98756.19;5040764;28;20043;-60
2022/09/26 08:54:16;;;;;;;6.35;3.10;;;;;;;12.08;68.69;98749.81;5054236;28;20043;-59
2022/09/26 08:56:46;;;;;;;5.10;2.60;;;;;;;12.37;68.73;98762.97;5055404;28;20536;-57
2022/09/26 08:59:22;;;;;;;2.75;1.70;;;;;;;12.52;68.35;98760.31;5054602;28;20048;-58
2022/09/26 09:01:48;;;;;;;2.58;1.90;;;;;;;12.43;67.84;98760.00;5071752;28;20572;-58
2022/09/26 09:04:30;;;;;;;2.53;1.60;;;;;;;12.02;67.63;98715.44;5050259;28;20135;-57
2022/09/26 09:07:03;;;;;;;5.47;1.58;;;;;;;12.40;67.43;98765.41;5062229;28;20044;-58
2022/09/26 09:09:29;;;;;;;2.90;1.80;;;;;;;12.32;67.04;98766.66;5072509;28;20036;-57
2022/09/26 09:12:24;;;;;;;2.78;1.60;;;;;;;12.30;66.73;98771.13;5073658;28;20045;-58
2022/09/26 09:15:44;;;;;;;2.53;1.40;;;;;;;12.33;67.33;98780.56;5067172;28;20062;-57
2022/09/26 09:18:59;;;;;;;4.55;1.95;;;;;;;12.99;66.26;98775.84;5061992;28;20047;-58
2022/09/26 09:21:56;;;;;;;2.85;1.55;;;;;;;13.05;65.23;98774.66;4976557;28;20621;-59
2022/09/26 09:24:55;;;;;;;2.25;1.50;;;;;;;13.24;64.42;98777.88;5067788;28;20177;-59
2022/09/26 09:27:44;;;;;;;2.88;1.40;;;;;;;13.04;64.14;98772.97;5041756;28;20059;-59
2022/09/26 09:30:24;;;;;;;2.58;1.60;;;;;;;13.06;64.40;98781.56;5061267;28;20166;-59
2022/09/26 09:33:26;;;;;;;3.17;1.50;;;;;;;12.83;64.05;98787.25;5066441;28;20052;-59
2022/09/26 09:36:12;;;;;;;1.60;1.40;;;;;;;12.40;64.70;98736.75;5036852;28;20070;-60
2022/09/26 09:39:02;;;;;;;3.55;2.17;;;;;;;12.10;64.76;98762.72;5069985;28;20079;-60
2022/09/26 09:41:50;;;;;;;10.60;1.70;;;;;;;12.02;65.34;98789.22;5070643;28;20039;-59
2022/09/26 09:44:16;;;;;;;8.50;1.35;;;;;;;11.86;65.60;98790.97;5038123;28;20431;-59
2022/09/26 09:46:42;;;;;;;4.40;1.50;;;;;;;11.80;66.05;98791.28;5090829;28;20043;-60
2022/09/26 09:49:08;;;;;;;2.72;1.63;;;;;;;11.82;66.10;98792.06;5059238;28;20098;-59
2022/09/26 09:51:55;;;;;;;3.85;1.70;;;;;;;11.80;66.65;98792.13;5037651;28;20048;-57
2022/09/26 09:54:28;;;;;;;3.35;1.52;;;;;;;12.00;66.76;98801.47;5073111;28;20047;-59
2022/09/26 09:56:58;;;;;;;3.50;1.30;;;;;;;11.99;66.57;98799.78;5052381;28;20048;-59
2022/09/26 09:59:48;;;;;;;1.98;1.35;;;;;;;12.07;66.44;98802.84;5056549;28;20488;-59
2022/09/26 10:02:37;;;;;;;3.25;1.58;;;;;;;12.20;66.25;98808.19;5052975;28;20056;-59
2022/09/26 10:05:44;;;;;;;3.17;1.23;;;;;;;12.39;65.90;98800.22;5053041;28;20543;-59
2022/09/26 10:08:26;;;;;;;3.40;1.42;;;;;;;12.70;65.20;98802.78;5052977;28;20086;-60
2022/09/26 10:11:22;;;;;;;5.53;1.38;;;;;;;12.70;64.89;98805.38;5056762;28;20043;-59
2022/09/26 10:14:02;;;;;;;2.20;1.33;;;;;;;12.34;65.08;98805.69;5053662;28;20102;-60
2022/09/26 10:17:09;;;;;;;4.18;1.45;;;;;;;12.15;65.39;98808.44;5019433;28;20538;-59
2022/09/26 10:20:01;;;;;;;3.78;1.73;;;;;;;12.20;65.46;98811.66;5051236;28;20079;-60
2022/09/26 10:22:50;;;;;;;2.25;1.52;;;;;;;11.81;67.66;98809.44;5052434;28;20479;-59
2022/09/26 10:25:25;;;;;;;3.17;1.38;;;;;;;11.62;69.22;98813.88;5052278;28;20112;-60
2022/09/26 10:27:55;;;;;;;7.68;1.38;;;;;;;11.49;69.94;98818.06;5040325;28;20042;-60
2022/09/26 10:30:30;;;;;;;6.18;1.45;;;;;;;11.32;70.88;98818.09;5053869;28;20492;-60
2022/09/26 10:33:04;;;;;;;2.65;0.98;;;;;;;11.24;71.76;98815.91;5056972;28;20427;-60
2022/09/26 10:35:50;;;;;;;1.35;1.00;;;;;;;11.02;72.87;98816.13;5072137;28;20040;-60
2022/09/26 10:38:27;;;;;;;1.15;0.88;;;;;;;10.98;72.86;98812.00;5051963;28;20041;-59
2022/09/26 10:41:05;;;;;;;1.83;1.20;;;;;;;11.00;73.15;98812.75;5058856;28;20063;-59
2022/09/26 10:43:36;;;;;;;1.50;1.20;;;;;;;10.83;72.94;98763.38;5069773;28;20224;-60
2022/09/26 10:46:25;;;;;;;3.38;1.23;;;;;;;11.30;71.97;98799.13;5059177;28;20146;-60
2022/09/26 10:49:12;;;;;;;3.20;1.30;;;;;;;11.48;71.48;98824.19;5069604;28;20564;-61
2022/09/26 10:52:16;;;;;;;4.70;1.60;;;;;;;11.41;71.66;98817.59;5056370;28;20109;-61
2022/09/26 10:55:08;;;;;;;3.17;1.23;;;;;;;11.61;70.67;98827.00;5037355;28;20048;-59
2022/09/26 10:57:45;;;;;;;2.97;1.48;;;;;;;11.74;69.98;98808.09;5053004;28;20072;-60
2022/09/26 11:00:41;;;;;;;1.75;1.33;;;;;;;12.16;69.34;98827.53;5054345;28;20529;-61
2022/09/26 11:03:16;;;;;;;2.85;1.23;;;;;;;12.76;67.96;98831.13;5074300;28;20039;-58
2022/09/26 11:06:02;;;;;;;2.35;1.33;;;;;;;13.26;66.54;98823.00;5056897;28;20431;-59
2022/09/26 11:08:33;;;;;;;2.90;1.30;;;;;;;13.61;65.48;98828.72;5071568;28;20126;-61
2022/09/26 11:11:22;;;;;;;1.50;1.10;;;;;;;13.87;64.34;98830.59;5074635;28;20055;-60
2022/09/26 11:13:55;;;;;;;1.70;1.20;;;;;;;14.11;63.74;98832.63;5050463;28;20415;-59
2022/09/26 11:16:21;;;;;;;3.42;1.38;;;;;;;14.09;62.99;98832.72;5051629;28;20523;-59
2022/09/26 11:19:01;;;;;;;3.42;1.20;;;;;;;13.72;63.42;98831.53;5051302;28;20435;-58
2022/09/26 11:21:47;;;;;;;4.25;1.90;;;;;;;13.89;63.29;98833.13;5052614;28;20059;-61
2022/09/26 11:24:50;;;;;;;2.28;0.98;;;;;;;13.88;62.59;98837.50;5051683;28;20040;-60
2022/09/26 11:27:42;;;;;;;1.05;0.70;;;;;;;13.33;62.19;98837.38;5051334;28;20048;-61
2022/09/26 11:30:13;;;;;;;1.20;0.80;;;;;;;13.21;62.09;98839.84;5053890;28;20039;-59
2022/09/26 11:32:50;;;;;;;1.52;0.75;;;;;;;13.47;61.62;98842.63;5061365;28;20147;-61
2022/09/26 11:36:09;;;;;;;1.13;0.80;;;;;;;13.44;61.07;98840.19;5052695;28;20048;-61
2022/09/26 11:38:46;;;;;;;1.57;0.70;;;;;;;13.24;60.93;98847.53;5061819;28;20541;-62
2022/09/26 11:41:12;;;;;;;1.88;0.90;;;;;;;13.01;61.40;98847.06;5056855;28;20052;-60
2022/09/26 11:43:52;;;;;;;1.02;0.77;;;;;;;13.02;61.68;98850.50;5054680;28;20465;-61
2022/09/26 11:46:53;;;;;;;2.72;0.95;;;;;;;12.82;62.20;98848.19;5088495;28;20097;-60
2022/09/26 11:50:22;;;;;;;4.40;1.00;;;;;;;13.34;62.34;98853.88;5050911;28;20056;-61
2022/09/26 11:53:47;;;;;;;3.63;1.02;;;;;;;13.96;60.73;98845.72;5054585;28;20044;-60
2022/09/26 11:56:19;;;;;;;4.50;1.40;;;;;;;13.55;61.33;98850.00;5068947;28;20484;-59
2022/09/26 11:58:54;;;;;;;7.85;1.65;;;;;;;12.99;63.47;98864.56;5067900;28;20048;-58
2022/09/26 12:01:20;;;;;;;6.10;1.65;;;;;;;12.43;66.05;98865.13;5053604;28;20037;-59
2022/09/26 12:04:10;;;;;;;2.38;1.45;;;;;;;12.29;67.17;98870.25;5056733;28;20059;-55
2022/09/26 12:07:06;;;;;;;6.53;1.70;;;;;;;12.14;68.41;98866.69;5058005;28;20040;-57
2022/09/26 12:09:50;;;;;;;3.88;1.42;;;;;;;12.03;69.47;98866.44;5067358;28;20420;-57
2022/09/26 12:12:20;;;;;;;4.78;1.10;;;;;;;11.92;69.67;98863.56;5077141;28;20539;-60
2022/09/26 12:15:01;;;;;;;9.25;1.75;;;;;;;11.92;70.59;98871.38;5080439;28;20042;-59
2022/09/26 12:17:58;;;;;;;7.40;1.55;;;;;;;11.95;70.44;98883.38;5080074;28;20040;-59
2022/09/26 12:20:33;;;;;;;5.40;1.48;;;;;;;11.54;70.80;98844.69;5079425;28;20090;-59
2022/09/26 12:23:10;;;;;;;5.05;1.67;;;;;;;11.60;71.62;98878.22;5081321;28;20123;-59
2022/09/26 12:25:47;;;;;;;4.38;1.70;;;;;;;11.54;72.47;98875.94;5074338;28;20081;-58
2022/09/26 12:28:29;;;;;;;4.18;1.85;;;;;;;11.44;73.02;98872.97;5061272;28;20044;-58
2022/09/26 12:31:26;;;;;;;7.10;2.47;;;;;;;11.36;74.33;98867.28;5078371;28;20037;-59
2022/09/26 12:34:29;;;;;;;2.47;1.20;;;;;;;11.39;75.54;98874.97;5069554;28;20048;-59
2022/09/26 12:37:11;;;;;;;2.30;1.10;;;;;;;11.62;74.43;98875.56;5081984;28;20036;-60